Time;durP1;ratioP1;P1;durP2;ratioP2;P2;SDS_P1;SDS_P2;PMS_P1;PMS_P2;Temp;Humidity;BMP_temperature;BMP_pressure;BME280_temperature;BME280_humidity;BME280_pressure;Samples;Min_cycle;Max_cycle;Signal;HPM_P1;HPM_P2
2021/12/31 00:00:11;;;;;;;24.27;11.88;;;-3.90;99.90;;;;;;5038719;28;20459;-86
2021/12/31 00:02:37;;;;;;;26.58;11.80;;;-4.00;99.90;;;;;;5038771;28;20125;-86
2021/12/31 00:05:04;;;;;;;22.92;11.25;;;-4.00;99.90;;;;;;5056773;28;20048;-86
2021/12/31 00:07:30;;;;;;;24.80;11.40;;;-4.00;99.90;;;;;;5038900;28;20052;-86
2021/12/31 00:10:01;;;;;;;23.67;11.20;;;-4.00;99.90;;;;;;5038395;28;20033;-86
2021/12/31 00:12:31;;;;;;;25.27;11.88;;;-4.00;99.90;;;;;;5038949;28;20056;-85
2021/12/31 00:14:57;;;;;;;23.50;11.03;;;-4.00;99.90;;;;;;5038554;28;20032;-86
2021/12/31 00:17:23;;;;;;;27.42;12.40;;;-4.00;99.90;;;;;;5038591;28;20116;-86
2021/12/31 00:19:58;;;;;;;30.40;13.48;;;-4.00;99.90;;;;;;5056121;28;20029;-87
2021/12/31 00:24:53;;;;;;;22.77;11.25;;;-4.00;99.90;;;;;;5055922;28;20036;-85
2021/12/31 00:27:19;;;;;;;22.95;11.82;;;-4.00;99.90;;;;;;5038593;28;20035;-86
2021/12/31 00:29:44;;;;;;;23.13;10.77;;;-4.00;99.90;;;;;;5038890;28;20111;-85
2021/12/31 00:32:10;;;;;;;27.27;12.52;;;-4.00;99.90;;;;;;5056685;28;20029;-85
2021/12/31 00:34:37;;;;;;;23.23;11.27;;;-4.10;99.90;;;;;;5037544;28;20455;-85
2021/12/31 00:37:03;;;;;;;24.05;11.43;;;-4.00;99.90;;;;;;5038006;28;20116;-85
2021/12/31 00:39:28;;;;;;;23.25;11.50;;;-4.00;99.90;;;;;;5038180;28;20064;-85
2021/12/31 00:41:54;;;;;;;26.27;11.40;;;-4.00;99.90;;;;;;5037559;28;20044;-85
2021/12/31 00:44:20;;;;;;;21.70;10.88;;;-4.00;99.90;;;;;;5037857;28;20029;-84
2021/12/31 00:46:47;;;;;;;24.45;11.55;;;-4.10;99.90;;;;;;5054935;28;20024;-84
2021/12/31 00:49:14;;;;;;;24.90;11.63;;;-4.00;99.90;;;;;;5057819;28;20402;-84
2021/12/31 00:51:40;;;;;;;22.85;11.45;;;-4.10;99.90;;;;;;5039209;28;20475;-87
2021/12/31 00:54:06;;;;;;;22.65;10.95;;;-4.10;99.90;;;;;;5037942;28;20040;-84
2021/12/31 00:56:32;;;;;;;24.50;12.07;;;-4.10;99.90;;;;;;5055916;28;20032;-85
2021/12/31 00:59:01;;;;;;;26.33;11.73;;;-4.10;99.90;;;;;;5055477;28;20383;-85
2021/12/31 01:01:27;;;;;;;30.52;13.52;;;-4.10;99.90;;;;;;5033107;28;20025;-85
2021/12/31 01:03:53;;;;;;;29.42;12.40;;;-4.10;99.90;;;;;;5038033;28;20379;-85
2021/12/31 01:06:19;;;;;;;28.52;12.50;;;-4.20;99.90;;;;;;5055801;28;20021;-85
2021/12/31 01:08:44;;;;;;;28.55;13.07;;;-4.20;99.90;;;;;;5037693;28;20036;-87
2021/12/31 01:11:11;;;;;;;26.77;13.23;;;-4.20;99.90;;;;;;5026618;28;20067;-87
2021/12/31 01:13:51;;;;;;;28.20;13.23;;;-4.20;99.90;;;;;;5014681;28;20030;-87
2021/12/31 01:16:19;;;;;;;29.70;13.38;;;-4.30;99.90;;;;;;5000182;28;20034;-85
2021/12/31 01:21:21;;;;;;;25.17;12.07;;;-4.30;99.90;;;;;;5015684;28;20460;-85
2021/12/31 01:23:47;;;;;;;28.25;12.35;;;-4.30;99.90;;;;;;5015530;28;20058;-84
2021/12/31 01:26:14;;;;;;;34.78;13.88;;;-4.30;99.90;;;;;;5015532;28;20026;-85
2021/12/31 01:28:39;;;;;;;25.90;12.82;;;-4.30;99.90;;;;;;5013942;28;20117;-85
2021/12/31 01:31:05;;;;;;;30.25;12.85;;;-4.30;99.90;;;;;;4998656;28;20124;-86
2021/12/31 01:33:32;;;;;;;31.13;13.30;;;-4.30;99.90;;;;;;4996871;28;20675;-85
2021/12/31 01:35:58;;;;;;;26.90;12.80;;;-4.30;99.90;;;;;;4996384;28;20049;-86
2021/12/31 01:38:24;;;;;;;24.85;12.32;;;-4.40;99.90;;;;;;5015088;28;20099;-86
2021/12/31 01:40:52;;;;;;;29.48;13.73;;;-4.20;99.90;;;;;;5014596;28;20035;-87
2021/12/31 01:43:19;;;;;;;30.55;14.50;;;-4.30;99.90;;;;;;4998329;28;20034;-88
2021/12/31 01:45:55;;;;;;;33.38;14.45;;;-4.30;99.90;;;;;;5013779;28;20026;-88
2021/12/31 01:48:32;;;;;;;29.67;14.13;;;-4.30;99.90;;;;;;4998178;28;20053;-89
2021/12/31 01:50:58;;;;;;;32.97;15.18;;;-4.30;99.90;;;;;;4997944;28;20121;-89
2021/12/31 01:53:26;;;;;;;33.65;15.40;;;-4.40;99.90;;;;;;4999205;28;20053;-88
2021/12/31 01:55:57;;;;;;;31.65;14.50;;;-4.40;99.90;;;;;;5002445;28;20072;-87
2021/12/31 01:58:24;;;;;;;32.08;15.43;;;-4.40;99.90;;;;;;5000329;28;20054;-88
2021/12/31 02:00:50;;;;;;;31.70;14.50;;;-4.40;99.90;;;;;;4998050;28;20526;-87
2021/12/31 02:03:21;;;;;;;34.67;15.15;;;-4.40;99.90;;;;;;4997875;28;20210;-88
2021/12/31 02:05:47;;;;;;;36.05;15.95;;;-4.40;99.90;;;;;;4997852;28;20449;-86
2021/12/31 02:08:12;;;;;;;34.83;14.55;;;-4.40;99.90;;;;;;4997626;28;20491;-87
2021/12/31 02:10:38;;;;;;;28.95;13.30;;;-4.40;99.90;;;;;;4997888;28;20026;-86
2021/12/31 02:13:05;;;;;;;28.90;13.45;;;-4.40;99.90;;;;;;4997435;28;20472;-86
2021/12/31 02:15:30;;;;;;;33.15;14.85;;;-4.30;99.90;;;;;;5013877;28;20061;-86
2021/12/31 02:17:59;;;;;;;30.88;14.02;;;-4.30;99.90;;;;;;4997279;28;20057;-86
2021/12/31 02:20:41;;;;;;;37.17;15.45;;;-4.40;99.90;;;;;;4997990;28;20061;-87
2021/12/31 02:23:25;;;;;;;30.88;14.52;;;-4.40;99.90;;;;;;4998384;28;20164;-87
2021/12/31 02:25:52;;;;;;;36.30;16.23;;;-4.40;99.90;;;;;;5000097;28;20087;-87
2021/12/31 02:28:20;;;;;;;31.75;13.65;;;-4.40;99.90;;;;;;4997643;28;20026;-85
2021/12/31 02:30:47;;;;;;;29.25;13.60;;;-4.40;99.90;;;;;;5000053;28;20025;-87
2021/12/31 02:33:13;;;;;;;30.67;13.55;;;-4.40;99.90;;;;;;4997253;28;20380;-87
2021/12/31 02:35:40;;;;;;;33.33;15.00;;;-4.40;99.90;;;;;;5014245;28;20053;-88
2021/12/31 02:38:07;;;;;;;29.55;14.05;;;-4.30;99.90;;;;;;4996426;28;20026;-88
2021/12/31 02:40:34;;;;;;;29.17;13.07;;;-4.40;99.90;;;;;;5015343;28;20104;-86
2021/12/31 02:43:00;;;;;;;36.42;16.70;;;-4.40;99.90;;;;;;5014856;28;20026;-89
2021/12/31 02:45:30;;;;;;;36.53;16.20;;;-4.40;99.90;;;;;;4997096;28;20383;-87
2021/12/31 02:48:00;;;;;;;34.88;15.50;;;-4.40;99.90;;;;;;4997044;28;20484;-87
2021/12/31 02:50:33;;;;;;;31.55;14.13;;;-4.40;99.90;;;;;;5034880;28;20463;-89
2021/12/31 02:53:11;;;;;;;32.33;15.25;;;-4.40;99.90;;;;;;5017460;28;20029;-87
2021/12/31 02:55:39;;;;;;;31.98;14.35;;;-4.30;99.90;;;;;;5035231;28;20025;-88
2021/12/31 02:58:06;;;;;;;31.38;14.98;;;-4.40;99.90;;;;;;5037827;28;20047;-87
2021/12/31 03:00:36;;;;;;;34.88;15.50;;;-4.30;99.90;;;;;;5018598;28;20036;-86
2021/12/31 03:03:04;;;;;;;36.83;16.03;;;-4.20;99.90;;;;;;5019097;28;20029;-87
2021/12/31 03:05:30;;;;;;;38.65;16.42;;;-4.20;99.90;;;;;;5034632;28;20455;-87
2021/12/31 03:07:57;;;;;;;30.30;14.70;;;-4.30;99.90;;;;;;5016871;28;20032;-87
2021/12/31 03:10:26;;;;;;;31.40;14.50;;;-4.10;99.90;;;;;;5017619;28;20030;-87
2021/12/31 03:12:52;;;;;;;34.70;14.77;;;-4.30;99.90;;;;;;5037911;28;20033;-89
2021/12/31 03:15:18;;;;;;;34.72;15.05;;;-4.30;99.90;;;;;;5020402;28;20115;-89
2021/12/31 03:17:45;;;;;;;40.47;16.75;;;-4.20;99.90;;;;;;5020021;28;20022;-89
2021/12/31 03:20:14;;;;;;;35.85;15.93;;;-4.20;99.90;;;;;;5019607;28;20033;-89
2021/12/31 03:22:42;;;;;;;38.95;17.83;;;-4.20;99.90;;;;;;5037688;28;20021;-89
2021/12/31 03:25:10;;;;;;;41.70;17.52;;;-4.30;99.90;;;;;;5019780;28;20049;-89
2021/12/31 03:27:36;;;;;;;43.20;18.80;;;-4.30;99.90;;;;;;5019461;28;20403;-87
2021/12/31 03:30:04;;;;;;;41.05;17.15;;;-4.30;99.90;;;;;;5037543;28;20026;-86
2021/12/31 03:32:30;;;;;;;35.78;15.82;;;-4.30;99.90;;;;;;5020185;28;20487;-86
2021/12/31 03:34:55;;;;;;;34.05;15.65;;;-4.30;99.90;;;;;;5038487;28;20056;-86
2021/12/31 03:37:21;;;;;;;37.13;16.42;;;-4.30;99.90;;;;;;5020565;28;20025;-86
2021/12/31 03:39:47;;;;;;;38.70;17.00;;;-4.30;99.90;;;;;;5019520;28;20033;-87
2021/12/31 03:42:15;;;;;;;36.88;16.58;;;-4.30;99.90;;;;;;5037418;28;20029;-88
2021/12/31 03:44:43;;;;;;;40.28;17.20;;;-4.30;99.90;;;;;;5037722;28;20042;-87
2021/12/31 03:47:08;;;;;;;39.88;16.00;;;-4.30;99.90;;;;;;5020150;28;20025;-88
2021/12/31 03:49:34;;;;;;;36.03;16.52;;;-4.30;99.90;;;;;;5037498;28;20033;-88
2021/12/31 03:52:00;;;;;;;32.72;14.88;;;-4.30;99.90;;;;;;5020224;28;20064;-87
2021/12/31 03:54:25;;;;;;;41.17;17.48;;;-4.20;99.90;;;;;;5019415;28;20022;-87
2021/12/31 03:56:52;;;;;;;42.85;18.58;;;-4.30;99.90;;;;;;5037313;28;20368;-87
2021/12/31 03:59:19;;;;;;;50.17;20.85;;;-4.30;99.90;;;;;;5037448;28;20025;-88
2021/12/31 04:01:45;;;;;;;43.45;19.05;;;-4.20;99.90;;;;;;5038520;28;20021;-85
2021/12/31 04:04:13;;;;;;;48.22;19.65;;;-4.30;99.90;;;;;;5025615;28;20167;-85
2021/12/31 04:06:39;;;;;;;49.65;20.17;;;-4.30;99.90;;;;;;5023305;28;20430;-87
2021/12/31 04:09:05;;;;;;;42.08;18.27;;;-4.30;99.90;;;;;;5037913;28;20083;-88
2021/12/31 04:11:31;;;;;;;44.08;19.38;;;-4.40;99.90;;;;;;5019480;28;20033;-88
2021/12/31 04:13:56;;;;;;;45.38;20.10;;;-4.40;99.90;;;;;;5037556;28;20026;-87
2021/12/31 04:16:22;;;;;;;45.05;18.02;;;-4.30;99.90;;;;;;5036499;28;20414;-87
2021/12/31 04:18:48;;;;;;;46.67;20.50;;;-4.30;99.90;;;;;;5019713;28;20430;-88
2021/12/31 04:21:15;;;;;;;52.45;21.83;;;-4.30;99.90;;;;;;5019201;28;20036;-87
2021/12/31 04:23:51;;;;;;;49.28;20.65;;;-4.40;99.90;;;;;;5036424;28;20104;-87
2021/12/31 04:26:17;;;;;;;49.92;20.30;;;-4.30;99.90;;;;;;5019396;28;20026;-87
2021/12/31 04:28:43;;;;;;;50.10;21.50;;;-4.40;99.90;;;;;;5019270;28;20025;-87
2021/12/31 04:31:09;;;;;;;49.45;20.33;;;-4.40;99.90;;;;;;5037651;28;20111;-89
2021/12/31 04:33:35;;;;;;;51.83;20.88;;;-4.40;99.90;;;;;;5036870;28;20423;-87
2021/12/31 04:36:01;;;;;;;51.63;21.15;;;-4.40;99.90;;;;;;5018668;28;20124;-87
2021/12/31 04:38:27;;;;;;;47.08;19.85;;;-4.40;99.90;;;;;;5036738;28;20033;-87
2021/12/31 04:40:52;;;;;;;45.08;18.90;;;-4.40;99.90;;;;;;5036114;28;20048;-88
2021/12/31 04:43:18;;;;;;;51.20;20.52;;;-4.40;99.90;;;;;;5019634;28;20124;-87
2021/12/31 04:45:44;;;;;;;53.40;20.08;;;-4.30;99.90;;;;;;5018651;28;20053;-88
2021/12/31 04:48:09;;;;;;;44.72;18.95;;;-4.30;99.90;;;;;;5037005;28;20483;-87
2021/12/31 04:50:35;;;;;;;46.30;19.52;;;-4.30;99.90;;;;;;5019310;28;20061;-88
2021/12/31 04:53:04;;;;;;;47.33;19.80;;;-4.30;99.90;;;;;;5023027;28;20044;-83
2021/12/31 04:55:30;;;;;;;50.00;20.92;;;-4.40;99.90;;;;;;5020547;28;20030;-87
2021/12/31 04:57:57;;;;;;;39.65;17.73;;;-4.40;99.90;;;;;;5019433;28;20075;-86
2021/12/31 05:00:23;;;;;;;40.03;17.55;;;-4.40;99.90;;;;;;5019444;28;20041;-86
2021/12/31 05:02:48;;;;;;;41.50;16.70;;;-2.90;99.90;;;;;;5018903;28;20029;-87
2021/12/31 05:05:14;;;;;;;40.28;16.90;;;-4.30;99.90;;;;;;5018131;28;20041;-87
2021/12/31 05:07:40;;;;;;;46.75;18.33;;;-4.30;99.90;;;;;;5024006;28;20052;-86
2021/12/31 05:10:07;;;;;;;45.40;20.25;;;-4.30;99.90;;;;;;5025168;28;20056;-85
2021/12/31 05:12:36;;;;;;;43.45;17.73;;;-4.30;99.90;;;;;;5038839;28;20030;-86
2021/12/31 05:15:06;;;;;;;40.85;17.25;;;-4.30;99.90;;;;;;5018069;28;20507;-88
2021/12/31 05:17:31;;;;;;;41.53;17.10;;;-4.20;99.90;;;;;;5035776;28;20029;-87
2021/12/31 05:19:57;;;;;;;38.42;16.42;;;-4.20;99.90;;;;;;5036399;28;20361;-87
2021/12/31 05:22:23;;;;;;;35.85;15.45;;;-4.30;99.90;;;;;;5035816;28;20037;-88
2021/12/31 05:24:49;;;;;;;41.15;16.92;;;-4.30;99.90;;;;;;5017726;28;20030;-86
2021/12/31 05:27:15;;;;;;;41.05;17.33;;;-4.30;99.90;;;;;;5017130;28;20037;-86
2021/12/31 05:29:41;;;;;;;45.45;17.20;;;-4.30;99.90;;;;;;5017637;28;20040;-88
2021/12/31 05:32:09;;;;;;;38.13;15.80;;;-4.30;99.90;;;;;;5017293;28;20364;-88
2021/12/31 05:34:34;;;;;;;40.28;17.70;;;-4.30;99.90;;;;;;5017223;28;20029;-87
2021/12/31 05:37:00;;;;;;;40.85;16.92;;;-4.20;99.90;;;;;;5001175;28;20045;-87
2021/12/31 05:39:26;;;;;;;39.08;16.35;;;-4.20;99.90;;;;;;5017456;28;20056;-88
2021/12/31 05:41:53;;;;;;;37.03;16.15;;;-4.20;99.90;;;;;;5017169;28;20029;-87
2021/12/31 05:44:19;;;;;;;36.63;16.55;;;-4.10;99.90;;;;;;5000940;28;20116;-87
2021/12/31 05:46:48;;;;;;;43.28;17.50;;;-4.20;99.90;;;;;;5017486;28;20059;-87
2021/12/31 05:49:14;;;;;;;37.58;16.80;;;-4.20;99.90;;;;;;5009748;28;20033;-87
2021/12/31 05:51:40;;;;;;;44.92;17.95;;;-4.20;99.90;;;;;;5020453;28;20052;-87
2021/12/31 05:54:05;;;;;;;43.05;18.23;;;-4.10;99.90;;;;;;4996864;28;20064;-86
2021/12/31 05:56:31;;;;;;;46.28;18.38;;;-4.10;99.90;;;;;;4997166;28;20030;-87
2021/12/31 05:58:57;;;;;;;47.88;18.48;;;-4.10;99.90;;;;;;4997829;28;20037;-88
2021/12/31 06:01:22;;;;;;;45.78;19.52;;;-4.10;99.90;;;;;;4997592;28;20030;-87
2021/12/31 06:03:49;;;;;;;45.88;19.52;;;-4.10;99.90;;;;;;5015453;28;20156;-88
2021/12/31 06:06:14;;;;;;;44.75;18.70;;;-4.10;99.90;;;;;;5014564;28;20077;-85
2021/12/31 06:08:40;;;;;;;39.30;17.75;;;-4.10;99.90;;;;;;5014038;28;20052;-85
2021/12/31 06:11:08;;;;;;;46.38;20.10;;;-4.00;99.90;;;;;;5021655;28;20128;-84
2021/12/31 06:13:35;;;;;;;45.08;18.80;;;-4.00;99.90;;;;;;5034467;28;20382;-84
2021/12/31 06:16:00;;;;;;;45.58;19.55;;;-4.00;99.90;;;;;;5034150;28;20035;-83
2021/12/31 06:18:28;;;;;;;55.85;22.13;;;-4.00;99.90;;;;;;5047686;28;20021;-84
2021/12/31 06:20:53;;;;;;;56.47;23.05;;;-3.90;99.90;;;;;;5018791;28;20030;-86
2021/12/31 06:23:19;;;;;;;50.53;22.20;;;-3.90;99.90;;;;;;5018652;28;20092;-85
2021/12/31 06:25:45;;;;;;;45.88;21.23;;;-3.90;99.90;;;;;;5016881;28;20022;-85
2021/12/31 06:28:10;;;;;;;53.38;23.67;;;-3.90;99.90;;;;;;5027977;28;20033;-84
2021/12/31 06:30:42;;;;;;;51.60;22.77;;;-3.80;99.90;;;;;;5000766;28;20084;-84
2021/12/31 06:33:07;;;;;;;51.63;22.90;;;-3.80;99.90;;;;;;4996612;28;20064;-87
2021/12/31 06:35:33;;;;;;;57.83;24.08;;;-3.80;99.90;;;;;;4997239;28;20050;-94
2021/12/31 06:38:01;;;;;;;51.53;21.50;;;-3.70;99.90;;;;;;4997954;28;20040;-84
2021/12/31 06:40:29;;;;;;;47.40;20.05;;;-3.80;99.90;;;;;;4996319;28;20029;-85
2021/12/31 06:42:54;;;;;;;44.67;19.35;;;-3.80;99.90;;;;;;4996619;28;20034;-86
2021/12/31 06:45:20;;;;;;;43.28;17.92;;;-3.80;99.90;;;;;;5015371;28;20037;-85
2021/12/31 06:47:46;;;;;;;41.67;17.50;;;-3.70;99.90;;;;;;4998719;28;20540;-86
2021/12/31 06:50:11;;;;;;;39.88;16.42;;;-3.80;99.90;;;;;;4998707;28;20041;-86
2021/12/31 06:52:38;;;;;;;41.35;16.40;;;-3.70;99.90;;;;;;5016593;28;20061;-87
2021/12/31 06:55:06;;;;;;;45.13;17.83;;;-3.70;99.90;;;;;;4998586;28;20380;-86
2021/12/31 06:57:33;;;;;;;46.88;18.65;;;-3.70;99.90;;;;;;5014550;28;20116;-86
2021/12/31 06:59:58;;;;;;;41.33;16.80;;;-3.70;99.90;;;;;;4997628;28;20387;-86
2021/12/31 07:02:24;;;;;;;43.45;17.58;;;-3.40;99.90;;;;;;4999872;28;20034;-86
2021/12/31 07:04:51;;;;;;;38.58;17.92;;;-3.70;99.90;;;;;;5000377;28;20117;-86
2021/12/31 07:07:17;;;;;;;38.50;17.33;;;-3.60;99.90;;;;;;5000705;28;20108;-86
2021/12/31 07:09:42;;;;;;;40.08;16.60;;;-3.60;99.90;;;;;;5018465;28;20445;-87
2021/12/31 07:12:08;;;;;;;42.83;19.20;;;-3.50;99.90;;;;;;4999996;28;20033;-86
2021/12/31 07:14:34;;;;;;;40.13;18.10;;;-3.50;99.90;;;;;;5018190;28;20058;-87
2021/12/31 07:17:00;;;;;;;38.92;17.60;;;-3.40;99.90;;;;;;5001869;28;20026;-86
2021/12/31 07:19:27;;;;;;;40.42;16.38;;;-3.30;99.90;;;;;;5005062;28;20041;-86
2021/12/31 07:21:53;;;;;;;34.60;14.73;;;-3.20;99.90;;;;;;5004933;28;20124;-87
2021/12/31 07:24:19;;;;;;;38.88;15.73;;;-3.20;99.90;;;;;;5000429;28;20054;-86
2021/12/31 07:26:44;;;;;;;39.30;16.25;;;-3.20;99.90;;;;;;5016507;28;20037;-87
2021/12/31 07:29:10;;;;;;;39.67;17.30;;;-3.10;99.90;;;;;;4983323;28;20141;-87
2021/12/31 07:31:36;;;;;;;36.63;15.88;;;-3.00;99.90;;;;;;4999744;28;20029;-87
2021/12/31 07:34:01;;;;;;;42.72;18.35;;;-3.00;99.90;;;;;;5000887;28;20026;-88
2021/12/31 07:36:27;;;;;;;36.83;16.38;;;-2.90;99.90;;;;;;5017798;28;20042;-86
2021/12/31 07:39:06;;;;;;;39.22;16.92;;;-2.90;99.90;;;;;;5017521;28;20507;-87
2021/12/31 07:41:32;;;;;;;36.08;16.30;;;-2.90;99.90;;;;;;5000161;28;20033;-88
2021/12/31 07:43:57;;;;;;;38.08;16.35;;;-2.80;99.90;;;;;;4999967;28;20026;-88
2021/12/31 07:46:23;;;;;;;38.83;17.05;;;-2.80;99.90;;;;;;4999866;28;20115;-86
2021/12/31 07:48:49;;;;;;;33.30;14.63;;;-2.80;99.90;;;;;;4999661;28;20036;-85
2021/12/31 07:51:15;;;;;;;36.72;16.63;;;-2.80;99.90;;;;;;4999486;28;20062;-86
2021/12/31 07:53:41;;;;;;;40.15;17.95;;;-2.70;99.90;;;;;;4999650;28;20057;-87
2021/12/31 07:56:07;;;;;;;37.22;17.00;;;-2.70;99.90;;;;;;4999241;28;20029;-85
2021/12/31 07:58:32;;;;;;;36.90;16.42;;;-2.70;99.90;;;;;;5000010;28;20033;-86
2021/12/31 08:00:58;;;;;;;41.97;18.00;;;-2.70;99.90;;;;;;4999766;28;20348;-86
2021/12/31 08:03:24;;;;;;;40.85;17.75;;;-2.80;99.90;;;;;;5016527;28;20034;-86
2021/12/31 08:05:49;;;;;;;38.58;17.33;;;-2.80;99.90;;;;;;4998757;28;20026;-87
2021/12/31 08:08:15;;;;;;;39.97;16.48;;;-2.80;99.90;;;;;;4999257;28;20070;-86
2021/12/31 08:10:41;;;;;;;45.40;19.58;;;-2.70;99.90;;;;;;4999783;28;20119;-86
2021/12/31 08:13:13;;;;;;;47.50;19.90;;;-2.70;99.90;;;;;;5017239;28;20036;-88
2021/12/31 08:15:39;;;;;;;50.72;20.25;;;-2.70;99.90;;;;;;4999695;28;20061;-86
2021/12/31 08:18:04;;;;;;;47.72;20.85;;;-2.70;99.90;;;;;;5001010;28;20538;-87
2021/12/31 08:20:30;;;;;;;45.28;18.55;;;-2.70;99.90;;;;;;5020966;28;20030;-86
2021/12/31 08:23:09;;;;;;;49.83;20.38;;;-2.70;99.90;;;;;;5001472;28;20030;-87
2021/12/31 08:25:39;;;;;;;50.28;20.63;;;-2.70;99.90;;;;;;5001193;28;20037;-86
2021/12/31 08:28:04;;;;;;;43.05;18.58;;;-2.70;99.90;;;;;;5015669;28;20025;-89
2021/12/31 08:30:30;;;;;;;43.80;18.83;;;-2.70;99.90;;;;;;4997252;28;20392;-87
2021/12/31 08:32:56;;;;;;;43.22;17.55;;;-2.70;99.90;;;;;;5014023;28;20120;-85
2021/12/31 08:35:22;;;;;;;46.33;19.08;;;-2.70;99.90;;;;;;5014899;28;20325;-89
2021/12/31 08:37:47;;;;;;;46.95;18.92;;;-2.70;99.90;;;;;;4998143;28;20034;-87
2021/12/31 08:40:13;;;;;;;37.10;16.25;;;-2.70;99.90;;;;;;4997125;28;20025;-86
2021/12/31 08:42:40;;;;;;;39.95;17.55;;;-2.70;99.90;;;;;;4998001;28;20415;-86
2021/12/31 08:45:07;;;;;;;39.25;17.63;;;-2.60;99.90;;;;;;5016716;28;20029;-88
2021/12/31 08:47:32;;;;;;;43.15;16.45;;;-2.50;99.90;;;;;;4998833;28;20539;-86
2021/12/31 08:49:58;;;;;;;37.15;16.05;;;-2.40;99.90;;;;;;5016006;28;20030;-87
2021/12/31 08:52:24;;;;;;;41.55;18.05;;;-2.30;99.90;;;;;;5015649;28;20080;-88
2021/12/31 08:54:49;;;;;;;43.33;18.92;;;-2.20;99.90;;;;;;5017813;28;20068;-85
2021/12/31 08:57:16;;;;;;;39.72;16.33;;;-2.10;99.90;;;;;;5035952;28;20026;-85
2021/12/31 08:59:43;;;;;;;39.67;17.00;;;-2.00;99.90;;;;;;5026742;28;20113;-86
2021/12/31 09:02:10;;;;;;;35.53;16.17;;;-2.00;99.90;;;;;;5037185;28;20038;-88
2021/12/31 09:04:39;;;;;;;37.70;16.83;;;-2.00;99.90;;;;;;5019654;28;20028;-87
2021/12/31 09:07:05;;;;;;;39.03;17.27;;;-2.00;99.90;;;;;;5017393;28;20034;-86
2021/12/31 09:09:31;;;;;;;38.47;17.63;;;-2.00;99.90;;;;;;5034747;28;20036;-86
2021/12/31 09:11:56;;;;;;;39.13;16.63;;;-1.90;99.90;;;;;;5036981;28;20029;-86
2021/12/31 09:14:23;;;;;;;37.92;15.50;;;-1.90;99.90;;;;;;5017855;28;20059;-86
2021/12/31 09:16:50;;;;;;;38.17;16.83;;;-1.90;99.90;;;;;;5017781;28;20021;-87
2021/12/31 09:19:16;;;;;;;38.70;17.42;;;-1.80;99.90;;;;;;5044174;28;20035;-90
2021/12/31 09:21:41;;;;;;;40.20;18.25;;;-1.80;99.90;;;;;;5061883;23;20057;-87
2021/12/31 09:24:07;;;;;;;57.92;23.90;;;-1.70;99.90;;;;;;5069637;28;20029;-85
2021/12/31 09:26:33;;;;;;;45.20;20.65;;;-1.60;99.90;;;;;;5043451;28;20021;-84
2021/12/31 09:29:05;;;;;;;37.83;17.20;;;-1.50;99.90;;;;;;5039302;28;20071;-84
2021/12/31 09:31:30;;;;;;;39.33;16.73;;;-1.50;99.90;;;;;;5037272;28;20471;-85
2021/12/31 09:33:56;;;;;;;33.55;16.13;;;-1.40;99.90;;;;;;5036734;28;20071;-88
2021/12/31 09:36:30;;;;;;;39.75;18.35;;;-1.30;99.90;;;;;;5055047;28;20100;-87
2021/12/31 09:38:56;;;;;;;34.78;16.52;;;-1.20;99.90;;;;;;5055008;28;20100;-85
2021/12/31 09:41:22;;;;;;;41.58;17.05;;;-1.20;99.90;;;;;;5037186;28;20443;-84
2021/12/31 09:43:50;;;;;;;42.88;18.02;;;-1.20;99.90;;;;;;5054691;28;20060;-85
2021/12/31 09:46:19;;;;;;;47.72;19.50;;;-1.30;99.90;;;;;;5036407;28;20490;-86
2021/12/31 09:48:45;;;;;;;42.50;18.98;;;-1.20;99.90;;;;;;5036543;28;20036;-87
2021/12/31 09:51:10;;;;;;;40.05;17.45;;;-1.20;99.90;;;;;;5054470;28;20029;-86
2021/12/31 09:53:36;;;;;;;42.85;19.00;;;-1.20;99.90;;;;;;5054060;28;20029;-86
2021/12/31 09:56:03;;;;;;;45.92;19.05;;;-1.20;99.90;;;;;;5036572;28;20070;-87
2021/12/31 09:58:29;;;;;;;46.08;20.27;;;-1.20;99.90;;;;;;5054280;28;20035;-85
2021/12/31 10:01:00;;;;;;;43.90;20.15;;;-1.10;99.90;;;;;;5054490;28;20056;-85
2021/12/31 10:03:31;;;;;;;45.95;20.38;;;-1.10;99.90;;;;;;5036954;28;20354;-87
2021/12/31 10:06:08;;;;;;;46.10;20.52;;;-1.00;99.90;;;;;;5037390;28;20033;-86
2021/12/31 10:08:48;;;;;;;40.30;18.42;;;-1.00;99.90;;;;;;5034745;28;20037;-88
2021/12/31 10:11:22;;;;;;;42.72;19.77;;;-0.90;99.90;;;;;;5039102;28;20037;-91
2021/12/31 10:13:57;;;;;;;43.15;19.73;;;-0.90;99.90;;;;;;5038399;28;20478;-87
2021/12/31 10:16:40;;;;;;;43.97;19.85;;;-0.90;99.90;;;;;;5035968;28;20079;-88
2021/12/31 10:19:29;;;;;;;43.13;18.55;;;-0.80;99.90;;;;;;5038856;28;20029;-86
2021/12/31 10:22:03;;;;;;;42.60;19.90;;;-0.70;99.90;;;;;;5036932;28;20469;-86
2021/12/31 10:24:48;;;;;;;37.92;16.83;;;-0.70;99.90;;;;;;5049600;28;20020;-91
2021/12/31 10:27:20;;;;;;;38.67;16.38;;;-0.60;99.90;;;;;;5008274;28;20037;-89
2021/12/31 10:30:06;;;;;;;34.28;15.57;;;-0.70;99.90;;;;;;5023720;28;20029;-90
2021/12/31 10:35:52;;;;;;;38.08;17.45;;;-0.60;99.90;;;;;;4476304;27;19605196;-85
2021/12/31 10:38:49;;;;;;;35.83;17.15;;;-0.70;99.90;;;;;;5148919;27;20035;-87
2021/12/31 10:41:21;;;;;;;33.25;16.42;;;-0.60;99.90;;;;;;5155503;27;20019;-87
2021/12/31 10:44:01;;;;;;;38.10;16.60;;;-0.60;99.90;;;;;;5151906;27;20042;-86
2021/12/31 10:46:27;;;;;;;34.22;16.75;;;-0.50;99.90;;;;;;5150447;27;20034;-85
2021/12/31 10:49:06;;;;;;;32.17;15.45;;;-0.50;99.90;;;;;;5153994;27;20035;-92
2021/12/31 10:55:49;;;;;;;70.72;33.13;;;-0.60;99.90;;;;;;5067742;28;20407;-90
2021/12/31 10:58:59;;;;;;;43.85;20.02;;;-0.60;99.90;;;;;;5063062;28;20552;-85
2021/12/31 11:01:46;;;;;;;36.63;16.48;;;-0.60;99.90;;;;;;5141532;27;20046;-85
2021/12/31 11:04:52;;;;;;;31.77;14.88;;;-0.50;99.90;;;;;;5153519;27;20384;-86
2021/12/31 11:08:04;;;;;;;37.80;17.13;;;-0.50;99.90;;;;;;5121568;27;20087;-87
2021/12/31 11:11:24;;;;;;;37.20;17.17;;;-0.40;99.90;;;;;;5152767;27;20110;-85
2021/12/31 11:14:00;;;;;;;31.02;14.80;;;-0.30;99.90;;;;;;5071791;28;20106;-88
2021/12/31 11:16:40;;;;;;;28.00;13.85;;;-0.30;99.90;;;;;;5148490;27;20035;-87
2021/12/31 11:19:11;;;;;;;30.00;14.77;;;-0.30;99.90;;;;;;5151271;27;20136;-85
2021/12/31 11:21:37;;;;;;;;;;;-0.20;99.90;;;;;;5151285;27;20110;-84
2021/12/31 11:24:34;;;;;;;35.70;14.77;;;-0.20;99.90;;;;;;5149272;27;20344;-83
2021/12/31 11:27:26;;;;;;;38.40;16.48;;;-0.30;99.90;;;;;;5152747;27;20469;-85
2021/12/31 11:29:52;;;;;;;32.75;16.13;;;-0.30;99.90;;;;;;5147829;27;20045;-87
2021/12/31 11:32:18;;;;;;;32.10;15.98;;;-0.30;99.90;;;;;;5151427;27;20457;-85
2021/12/31 11:34:44;;;;;;;37.25;16.85;;;-0.30;99.90;;;;;;5150817;27;20055;-87
2021/12/31 11:37:45;;;;;;;36.17;16.05;;;-0.30;99.90;;;;;;5152881;27;20425;-86
2021/12/31 11:40:35;;;;;;;34.72;16.25;;;-0.30;99.90;;;;;;5150470;27;20054;-87
2021/12/31 11:43:13;;;;;;;31.33;14.57;;;-0.30;99.90;;;;;;5150650;27;20031;-85
2021/12/31 11:45:39;;;;;;;33.42;13.65;;;-0.30;99.90;;;;;;5146240;27;20023;-85
2021/12/31 11:48:42;;;;;;;33.30;15.57;;;-0.30;99.90;;;;;;5136413;27;20480;-85
2021/12/31 11:51:09;;;;;;;34.30;15.70;;;-0.20;99.90;;;;;;5136390;27;20027;-86
2021/12/31 11:53:57;;;;;;;34.28;16.08;;;-0.20;99.90;;;;;;5136142;27;20484;-85
2021/12/31 11:56:41;;;;;;;38.42;17.55;;;-0.20;99.90;;;;;;5124560;27;20449;-84
2021/12/31 11:59:07;;;;;;;32.53;16.05;;;-0.10;99.90;;;;;;5136278;27;20031;-85
2021/12/31 12:01:41;;;;;;;37.85;17.55;;;-0.10;99.90;;;;;;5137350;27;20030;-86
2021/12/31 12:04:30;;;;;;;31.83;14.70;;;-0.20;99.90;;;;;;5135728;27;20038;-84
2021/12/31 12:07:05;;;;;;;30.98;14.23;;;-0.20;99.90;;;;;;5138694;27;20023;-85
2021/12/31 12:09:37;;;;;;;39.30;18.00;;;-0.20;99.90;;;;;;5138061;27;20019;-84
2021/12/31 12:12:11;;;;;;;38.50;17.15;;;-0.20;99.90;;;;;;5137756;27;20019;-84
2021/12/31 12:14:38;;;;;;;32.20;15.90;;;-0.20;99.90;;;;;;5137872;27;20062;-83
2021/12/31 12:17:07;;;;;;;36.63;16.23;;;-0.20;99.90;;;;;;5138486;27;20031;-85
2021/12/31 12:19:52;;;;;;;31.95;15.98;;;-0.30;99.90;;;;;;5138376;27;20020;-86
2021/12/31 12:22:31;;;;;;;35.42;15.85;;;-0.30;99.90;;;;;;5137648;27;20027;-87
2021/12/31 12:25:05;;;;;;;31.20;14.80;;;-0.30;99.90;;;;;;5139458;27;20065;-87
2021/12/31 12:27:31;;;;;;;34.30;15.27;;;-0.30;99.90;;;;;;5140292;27;20403;-87
2021/12/31 12:29:59;;;;;;;32.78;15.77;;;-0.30;99.90;;;;;;5138788;27;20023;-86
2021/12/31 12:33:29;;;;;;;33.92;15.70;;;-0.30;99.90;;;;;;5138179;27;20026;-87
2021/12/31 12:35:31;;;;;;;38.67;17.25;;;-0.30;99.90;;;;;;5124031;27;20516;-86
2021/12/31 12:38:00;;;;;;;45.65;19.65;;;-0.30;99.90;;;;;;5136965;27;20032;-87
2021/12/31 12:40:54;;;;;;;48.55;19.60;;;-0.40;99.90;;;;;;5136114;27;20079;-86
2021/12/31 12:43:20;;;;;;;42.95;18.77;;;-0.40;99.90;;;;;;5136956;27;20029;-85
2021/12/31 12:45:52;;;;;;;46.55;20.35;;;-0.40;99.90;;;;;;5135677;27;20083;-85
2021/12/31 12:48:31;;;;;;;44.05;19.40;;;-0.40;99.90;;;;;;5135538;27;20576;-86
2021/12/31 12:51:00;;;;;;;35.55;16.08;;;-0.50;99.90;;;;;;5135599;27;20027;-87